CheckWX is a tool to help pilots better visualize weather data.  It is not intended as a substitute for an official pre-flight weather briefing.

19:09:40 UTC

PTYA METAR
Yap International Airport
Yap Island, Federated States of Micronesia
Current

17 mins ago

PTYA 171853Z 00000KT 12SM FEW016 SCT300 26/25 A2984 RMK SLP105 T02560247
Observed
Oct-17 @ 18:53 UTC
Visibility
19,300 meters
Flight Rules
VFR
Cloud Levels
  • Few at 1,600' AGL
  • Scattered at 30,000' AGL
Temperature
26°C / 79°F
Dewpoint
25°C / 77°F
Humidity
94%
Altimeter
29.84" Hg
Pressure
1010.52 hPa
Previous

1 hour ago

PTYA 171755Z VRB03KT 12SM SCT016 BKN300 27/25 A2984 RMK MDT CU OHD SLP105 8/201 T02680245 10269 20252 56010
Observed
Oct-17 @ 17:55 UTC
Wind
  • Variable at 3 KTS
Visibility
19,300 meters
Flight Rules
VFR
Cloud Levels
  • Scattered at 1,600' AGL
  • Broken at 30,000' AGL
Temperature
27°C / 81°F
Dewpoint
25°C / 77°F
Heat Index
31°C / 88°F
Humidity
89%
Altimeter
29.84" Hg
Pressure
1010.52 hPa
Previous

2 hours ago

PTYA 171652Z 00000KT 12SM FEW016 SCT300 25/25 A2984 RMK SLP105 T02520248
Observed
Oct-17 @ 16:52 UTC
Visibility
19,300 meters
Flight Rules
VFR
Cloud Levels
  • Few at 1,600' AGL
  • Scattered at 30,000' AGL
Temperature
25°C / 77°F
Dewpoint
25°C / 77°F
Humidity
100%
Altimeter
29.84" Hg
Pressure
1010.52 hPa